sensor_id;sensor_type;location;lat;lon;timestamp;P1;durP1;ratioP1;P2;durP2;ratioP2
17253;SDS011;32542;52.832;13.816;2023-11-18T00:00:24;2.85;;;1.50;;
17253;SDS011;32542;52.832;13.816;2023-11-18T00:03:28;3.35;;;1.40;;
17253;SDS011;32542;52.832;13.816;2023-11-18T00:06:31;4.05;;;1.17;;
17253;SDS011;32542;52.832;13.816;2023-11-18T00:09:34;3.38;;;1.65;;
17253;SDS011;32542;52.832;13.816;2023-11-18T00:12:38;3.55;;;1.08;;
17253;SDS011;32542;52.832;13.816;2023-11-18T00:15:42;3.90;;;1.17;;
17253;SDS011;32542;52.832;13.816;2023-11-18T00:18:49;2.95;;;1.40;;
17253;SDS011;32542;52.832;13.816;2023-11-18T00:21:51;4.25;;;0.93;;
17253;SDS011;32542;52.832;13.816;2023-11-18T00:24:55;7.80;;;1.58;;
17253;SDS011;32542;52.832;13.816;2023-11-18T00:27:57;2.00;;;1.23;;
17253;SDS011;32542;52.832;13.816;2023-11-18T00:31:00;3.95;;;1.20;;
17253;SDS011;32542;52.832;13.816;2023-11-18T00:34:07;5.50;;;1.33;;
17253;SDS011;32542;52.832;13.816;2023-11-18T00:37:10;5.85;;;1.02;;
17253;SDS011;32542;52.832;13.816;2023-11-18T00:40:13;2.75;;;1.30;;
17253;SDS011;32542;52.832;13.816;2023-11-18T00:43:19;3.45;;;1.20;;
17253;SDS011;32542;52.832;13.816;2023-11-18T00:46:24;4.50;;;1.20;;
17253;SDS011;32542;52.832;13.816;2023-11-18T00:49:28;3.38;;;1.33;;
17253;SDS011;32542;52.832;13.816;2023-11-18T00:52:31;1.75;;;1.05;;
17253;SDS011;32542;52.832;13.816;2023-11-18T00:55:34;1.50;;;0.90;;
17253;SDS011;32542;52.832;13.816;2023-11-18T00:58:38;2.47;;;1.10;;
17253;SDS011;32542;52.832;13.816;2023-11-18T01:01:42;2.65;;;1.02;;
17253;SDS011;32542;52.832;13.816;2023-11-18T01:04:46;2.88;;;1.15;;
17253;SDS011;32542;52.832;13.816;2023-11-18T01:07:49;3.42;;;1.20;;
17253;SDS011;32542;52.832;13.816;2023-11-18T01:10:52;2.95;;;1.60;;
17253;SDS011;32542;52.832;13.816;2023-11-18T01:13:55;1.80;;;1.02;;
17253;SDS011;32542;52.832;13.816;2023-11-18T01:16:58;1.80;;;1.00;;
17253;SDS011;32542;52.832;13.816;2023-11-18T01:20:03;1.25;;;0.90;;
17253;SDS011;32542;52.832;13.816;2023-11-18T01:23:11;1.98;;;1.20;;
17253;SDS011;32542;52.832;13.816;2023-11-18T01:26:14;1.65;;;1.13;;
17253;SDS011;32542;52.832;13.816;2023-11-18T01:29:17;2.03;;;1.00;;
17253;SDS011;32542;52.832;13.816;2023-11-18T01:32:20;1.70;;;0.88;;
17253;SDS011;32542;52.832;13.816;2023-11-18T01:35:24;1.40;;;0.90;;
17253;SDS011;32542;52.832;13.816;2023-11-18T01:38:28;2.05;;;1.20;;
17253;SDS011;32542;52.832;13.816;2023-11-18T01:41:32;1.75;;;1.15;;
17253;SDS011;32542;52.832;13.816;2023-11-18T01:44:35;2.50;;;1.10;;
17253;SDS011;32542;52.832;13.816;2023-11-18T01:47:38;1.27;;;1.00;;
17253;SDS011;32542;52.832;13.816;2023-11-18T01:50:43;2.20;;;1.10;;
17253;SDS011;32542;52.832;13.816;2023-11-18T01:53:48;2.42;;;1.17;;
17253;SDS011;32542;52.832;13.816;2023-11-18T01:56:52;2.05;;;1.48;;
17253;SDS011;32542;52.832;13.816;2023-11-18T01:59:56;1.23;;;1.00;;
17253;SDS011;32542;52.832;13.816;2023-11-18T02:02:59;2.67;;;1.27;;
17253;SDS011;32542;52.832;13.816;2023-11-18T02:06:05;3.60;;;0.90;;
17253;SDS011;32542;52.832;13.816;2023-11-18T02:09:12;1.42;;;1.00;;
17253;SDS011;32542;52.832;13.816;2023-11-18T02:12:17;2.67;;;1.10;;
17253;SDS011;32542;52.832;13.816;2023-11-18T02:15:24;1.52;;;0.98;;
17253;SDS011;32542;52.832;13.816;2023-11-18T02:18:28;1.73;;;1.20;;
17253;SDS011;32542;52.832;13.816;2023-11-18T02:21:35;1.83;;;1.10;;
17253;SDS011;32542;52.832;13.816;2023-11-18T02:24:39;1.70;;;1.00;;
17253;SDS011;32542;52.832;13.816;2023-11-18T02:27:44;1.30;;;0.90;;
17253;SDS011;32542;52.832;13.816;2023-11-18T02:30:52;3.10;;;1.40;;
17253;SDS011;32542;52.832;13.816;2023-11-18T02:34:00;1.75;;;1.00;;
17253;SDS011;32542;52.832;13.816;2023-11-18T02:37:09;1.60;;;0.90;;
17253;SDS011;32542;52.832;13.816;2023-11-18T02:40:15;2.08;;;0.90;;
17253;SDS011;32542;52.832;13.816;2023-11-18T02:43:24;2.85;;;0.93;;
17253;SDS011;32542;52.832;13.816;2023-11-18T02:46:30;1.70;;;0.90;;
17253;SDS011;32542;52.832;13.816;2023-11-18T02:49:34;3.05;;;0.90;;
17253;SDS011;32542;52.832;13.816;2023-11-18T02:52:37;1.15;;;0.90;;
17253;SDS011;32542;52.832;13.816;2023-11-18T02:55:40;1.17;;;0.98;;
17253;SDS011;32542;52.832;13.816;2023-11-18T02:58:45;0.77;;;0.77;;
17253;SDS011;32542;52.832;13.816;2023-11-18T03:01:48;1.20;;;0.80;;
17253;SDS011;32542;52.832;13.816;2023-11-18T03:04:55;1.77;;;0.77;;
17253;SDS011;32542;52.832;13.816;2023-11-18T03:07:58;0.95;;;0.85;;
17253;SDS011;32542;52.832;13.816;2023-11-18T03:11:01;1.02;;;0.70;;
17253;SDS011;32542;52.832;13.816;2023-11-18T03:14:07;2.83;;;1.00;;
17253;SDS011;32542;52.832;13.816;2023-11-18T03:17:11;1.55;;;0.90;;
17253;SDS011;32542;52.832;13.816;2023-11-18T03:20:14;1.70;;;0.93;;
17253;SDS011;32542;52.832;13.816;2023-11-18T03:23:19;1.27;;;0.98;;
17253;SDS011;32542;52.832;13.816;2023-11-18T03:26:22;1.20;;;0.93;;
17253;SDS011;32542;52.832;13.816;2023-11-18T03:29:28;1.23;;;0.85;;
17253;SDS011;32542;52.832;13.816;2023-11-18T03:32:33;2.40;;;0.77;;
17253;SDS011;32542;52.832;13.816;2023-11-18T03:35:36;3.25;;;1.00;;
17253;SDS011;32542;52.832;13.816;2023-11-18T03:38:40;3.25;;;0.90;;
17253;SDS011;32542;52.832;13.816;2023-11-18T03:41:43;0.82;;;0.80;;
17253;SDS011;32542;52.832;13.816;2023-11-18T03:44:48;1.10;;;0.80;;
17253;SDS011;32542;52.832;13.816;2023-11-18T03:47:51;1.20;;;0.95;;
17253;SDS011;32542;52.832;13.816;2023-11-18T03:50:54;1.08;;;0.73;;
17253;SDS011;32542;52.832;13.816;2023-11-18T03:53:57;1.73;;;0.88;;
17253;SDS011;32542;52.832;13.816;2023-11-18T03:57:00;1.33;;;0.80;;
17253;SDS011;32542;52.832;13.816;2023-11-18T04:00:05;2.80;;;0.70;;
17253;SDS011;32542;52.832;13.816;2023-11-18T04:03:13;2.90;;;0.80;;
17253;SDS011;32542;52.832;13.816;2023-11-18T04:06:16;1.42;;;0.80;;
17253;SDS011;32542;52.832;13.816;2023-11-18T04:09:19;1.08;;;0.88;;
17253;SDS011;32542;52.832;13.816;2023-11-18T04:12:22;2.22;;;1.08;;
17253;SDS011;32542;52.832;13.816;2023-11-18T04:15:29;2.25;;;0.95;;
17253;SDS011;32542;52.832;13.816;2023-11-18T04:18:32;1.45;;;0.95;;
17253;SDS011;32542;52.832;13.816;2023-11-18T04:21:35;2.63;;;1.00;;
17253;SDS011;32542;52.832;13.816;2023-11-18T04:24:38;1.00;;;0.80;;
17253;SDS011;32542;52.832;13.816;2023-11-18T04:27:41;2.47;;;0.80;;
17253;SDS011;32542;52.832;13.816;2023-11-18T04:30:48;1.55;;;0.90;;
17253;SDS011;32542;52.832;13.816;2023-11-18T04:33:51;0.93;;;0.80;;
17253;SDS011;32542;52.832;13.816;2023-11-18T04:36:57;0.88;;;0.70;;
17253;SDS011;32542;52.832;13.816;2023-11-18T04:40:00;1.70;;;0.98;;
17253;SDS011;32542;52.832;13.816;2023-11-18T04:43:03;1.70;;;0.68;;
17253;SDS011;32542;52.832;13.816;2023-11-18T04:46:08;1.05;;;0.90;;
17253;SDS011;32542;52.832;13.816;2023-11-18T04:49:13;1.63;;;0.90;;
17253;SDS011;32542;52.832;13.816;2023-11-18T04:52:16;0.70;;;0.70;;
17253;SDS011;32542;52.832;13.816;2023-11-18T04:55:19;1.65;;;0.80;;
17253;SDS011;32542;52.832;13.816;2023-11-18T04:58:22;1.08;;;0.60;;
17253;SDS011;32542;52.832;13.816;2023-11-18T05:01:27;1.90;;;0.90;;
17253;SDS011;32542;52.832;13.816;2023-11-18T05:04:30;0.95;;;0.88;;
17253;SDS011;32542;52.832;13.816;2023-11-18T05:07:32;0.65;;;0.65;;
17253;SDS011;32542;52.832;13.816;2023-11-18T05:10:36;1.88;;;0.80;;
17253;SDS011;32542;52.832;13.816;2023-11-18T05:13:39;0.80;;;0.80;;
17253;SDS011;32542;52.832;13.816;2023-11-18T05:16:44;0.80;;;0.80;;
17253;SDS011;32542;52.832;13.816;2023-11-18T05:19:47;1.30;;;0.85;;
17253;SDS011;32542;52.832;13.816;2023-11-18T05:22:50;0.98;;;0.70;;
17253;SDS011;32542;52.832;13.816;2023-11-18T05:25:53;0.77;;;0.77;;
17253;SDS011;32542;52.832;13.816;2023-11-18T05:28:57;0.80;;;0.70;;
17253;SDS011;32542;52.832;13.816;2023-11-18T05:32:01;0.80;;;0.60;;
17253;SDS011;32542;52.832;13.816;2023-11-18T05:35:04;1.27;;;0.90;;
17253;SDS011;32542;52.832;13.816;2023-11-18T05:38:08;1.10;;;0.80;;
17253;SDS011;32542;52.832;13.816;2023-11-18T05:41:13;1.20;;;0.60;;
17253;SDS011;32542;52.832;13.816;2023-11-18T05:44:25;0.90;;;0.70;;
17253;SDS011;32542;52.832;13.816;2023-11-18T05:47:33;0.80;;;0.60;;
17253;SDS011;32542;52.832;13.816;2023-11-18T05:50:36;1.02;;;0.73;;
17253;SDS011;32542;52.832;13.816;2023-11-18T05:53:40;1.02;;;0.77;;
17253;SDS011;32542;52.832;13.816;2023-11-18T05:56:45;1.63;;;0.77;;
17253;SDS011;32542;52.832;13.816;2023-11-18T05:59:48;1.60;;;0.70;;
17253;SDS011;32542;52.832;13.816;2023-11-18T06:02:52;0.88;;;0.80;;
17253;SDS011;32542;52.832;13.816;2023-11-18T06:05:57;0.90;;;0.80;;
17253;SDS011;32542;52.832;13.816;2023-11-18T06:09:00;0.73;;;0.73;;
17253;SDS011;32542;52.832;13.816;2023-11-18T06:12:09;0.80;;;0.70;;
17253;SDS011;32542;52.832;13.816;2023-11-18T06:15:12;0.95;;;0.70;;
17253;SDS011;32542;52.832;13.816;2023-11-18T06:18:17;0.68;;;0.52;;
17253;SDS011;32542;52.832;13.816;2023-11-18T06:21:21;0.63;;;0.52;;
17253;SDS011;32542;52.832;13.816;2023-11-18T06:24:26;0.80;;;0.80;;
17253;SDS011;32542;52.832;13.816;2023-11-18T06:27:30;0.50;;;0.50;;
17253;SDS011;32542;52.832;13.816;2023-11-18T06:30:33;0.90;;;0.80;;
17253;SDS011;32542;52.832;13.816;2023-11-18T06:33:39;1.13;;;0.70;;
17253;SDS011;32542;52.832;13.816;2023-11-18T06:36:45;1.73;;;0.80;;
17253;SDS011;32542;52.832;13.816;2023-11-18T06:39:48;1.23;;;0.70;;
17253;SDS011;32542;52.832;13.816;2023-11-18T06:42:51;1.20;;;0.60;;
17253;SDS011;32542;52.832;13.816;2023-11-18T06:46:03;1.42;;;0.70;;
17253;SDS011;32542;52.832;13.816;2023-11-18T06:49:07;1.55;;;0.80;;
17253;SDS011;32542;52.832;13.816;2023-11-18T06:52:12;1.10;;;0.70;;
17253;SDS011;32542;52.832;13.816;2023-11-18T06:55:15;0.50;;;0.50;;
17253;SDS011;32542;52.832;13.816;2023-11-18T06:58:18;0.63;;;0.63;;
17253;SDS011;32542;52.832;13.816;2023-11-18T07:01:22;0.75;;;0.75;;
17253;SDS011;32542;52.832;13.816;2023-11-18T07:04:26;0.80;;;0.70;;
17253;SDS011;32542;52.832;13.816;2023-11-18T07:07:29;1.30;;;0.70;;
17253;SDS011;32542;52.832;13.816;2023-11-18T07:10:32;1.27;;;0.68;;
17253;SDS011;32542;52.832;13.816;2023-11-18T07:13:35;0.85;;;0.80;;
17253;SDS011;32542;52.832;13.816;2023-11-18T07:16:39;1.55;;;0.70;;
17253;SDS011;32542;52.832;13.816;2023-11-18T07:19:43;0.60;;;0.60;;
17253;SDS011;32542;52.832;13.816;2023-11-18T07:22:46;0.52;;;0.50;;
17253;SDS011;32542;52.832;13.816;2023-11-18T07:25:49;1.27;;;0.70;;
17253;SDS011;32542;52.832;13.816;2023-11-18T07:28:52;0.52;;;0.52;;
17253;SDS011;32542;52.832;13.816;2023-11-18T07:31:55;1.35;;;0.70;;
17253;SDS011;32542;52.832;13.816;2023-11-18T07:34:59;1.73;;;0.90;;
17253;SDS011;32542;52.832;13.816;2023-11-18T07:38:03;0.93;;;0.70;;
17253;SDS011;32542;52.832;13.816;2023-11-18T07:41:09;1.30;;;0.70;;
17253;SDS011;32542;52.832;13.816;2023-11-18T07:44:24;0.57;;;0.57;;
17253;SDS011;32542;52.832;13.816;2023-11-18T07:47:27;1.80;;;0.60;;
17253;SDS011;32542;52.832;13.816;2023-11-18T07:50:34;0.80;;;0.68;;
17253;SDS011;32542;52.832;13.816;2023-11-18T07:53:38;1.83;;;0.90;;
17253;SDS011;32542;52.832;13.816;2023-11-18T07:56:41;1.05;;;0.70;;
17253;SDS011;32542;52.832;13.816;2023-11-18T07:59:44;0.75;;;0.65;;
17253;SDS011;32542;52.832;13.816;2023-11-18T08:02:47;1.35;;;0.77;;
17253;SDS011;32542;52.832;13.816;2023-11-18T08:05:52;1.13;;;0.65;;
17253;SDS011;32542;52.832;13.816;2023-11-18T08:08:55;0.88;;;0.70;;
17253;SDS011;32542;52.832;13.816;2023-11-18T08:11:59;0.60;;;0.60;;
17253;SDS011;32542;52.832;13.816;2023-11-18T08:15:02;0.88;;;0.70;;
17253;SDS011;32542;52.832;13.816;2023-11-18T08:18:08;0.60;;;0.60;;
17253;SDS011;32542;52.832;13.816;2023-11-18T08:21:13;0.85;;;0.73;;
17253;SDS011;32542;52.832;13.816;2023-11-18T08:24:16;0.63;;;0.60;;
17253;SDS011;32542;52.832;13.816;2023-11-18T08:27:19;0.68;;;0.65;;
17253;SDS011;32542;52.832;13.816;2023-11-18T08:30:22;0.50;;;0.50;;
17253;SDS011;32542;52.832;13.816;2023-11-18T08:33:25;1.30;;;0.60;;
17253;SDS011;32542;52.832;13.816;2023-11-18T08:36:31;0.77;;;0.70;;
17253;SDS011;32542;52.832;13.816;2023-11-18T08:39:35;0.60;;;0.50;;
17253;SDS011;32542;52.832;13.816;2023-11-18T08:42:38;0.73;;;0.70;;
17253;SDS011;32542;52.832;13.816;2023-11-18T08:45:41;0.95;;;0.77;;
17253;SDS011;32542;52.832;13.816;2023-11-18T08:48:44;0.90;;;0.63;;
17253;SDS011;32542;52.832;13.816;2023-11-18T08:51:51;0.60;;;0.60;;
17253;SDS011;32542;52.832;13.816;2023-11-18T08:54:58;1.13;;;0.70;;
17253;SDS011;32542;52.832;13.816;2023-11-18T08:58:19;0.75;;;0.70;;
17253;SDS011;32542;52.832;13.816;2023-11-18T09:01:23;0.60;;;0.60;;
17253;SDS011;32542;52.832;13.816;2023-11-18T09:04:29;0.85;;;0.60;;
17253;SDS011;32542;52.832;13.816;2023-11-18T09:07:34;0.70;;;0.70;;
17253;SDS011;32542;52.832;13.816;2023-11-18T09:10:38;0.60;;;0.60;;
17253;SDS011;32542;52.832;13.816;2023-11-18T09:13:43;1.15;;;0.70;;
17253;SDS011;32542;52.832;13.816;2023-11-18T09:16:48;0.60;;;0.57;;
17253;SDS011;32542;52.832;13.816;2023-11-18T09:19:51;0.50;;;0.50;;
17253;SDS011;32542;52.832;13.816;2023-11-18T09:22:57;1.30;;;0.57;;
17253;SDS011;32542;52.832;13.816;2023-11-18T09:26:00;1.20;;;0.60;;
17253;SDS011;32542;52.832;13.816;2023-11-18T09:29:04;0.52;;;0.52;;
17253;SDS011;32542;52.832;13.816;2023-11-18T09:32:09;1.08;;;0.70;;
17253;SDS011;32542;52.832;13.816;2023-11-18T09:35:14;0.65;;;0.52;;
17253;SDS011;32542;52.832;13.816;2023-11-18T09:38:20;3.58;;;0.60;;
17253;SDS011;32542;52.832;13.816;2023-11-18T09:41:23;0.95;;;0.82;;
17253;SDS011;32542;52.832;13.816;2023-11-18T09:44:28;0.70;;;0.60;;
17253;SDS011;32542;52.832;13.816;2023-11-18T09:47:33;4.95;;;1.00;;
17253;SDS011;32542;52.832;13.816;2023-11-18T09:50:41;0.63;;;0.60;;
17253;SDS011;32542;52.832;13.816;2023-11-18T09:53:51;1.73;;;0.80;;
17253;SDS011;32542;52.832;13.816;2023-11-18T09:56:56;1.48;;;0.60;;
17253;SDS011;32542;52.832;13.816;2023-11-18T10:00:11;3.10;;;0.77;;
17253;SDS011;32542;52.832;13.816;2023-11-18T10:03:23;3.67;;;0.82;;
17253;SDS011;32542;52.832;13.816;2023-11-18T10:06:26;5.95;;;1.00;;
17253;SDS011;32542;52.832;13.816;2023-11-18T10:09:34;2.35;;;1.25;;
17253;SDS011;32542;52.832;13.816;2023-11-18T10:12:41;4.25;;;1.20;;
17253;SDS011;32542;52.832;13.816;2023-11-18T10:15:46;5.13;;;1.10;;
17253;SDS011;32542;52.832;13.816;2023-11-18T10:18:53;4.30;;;1.00;;
17253;SDS011;32542;52.832;13.816;2023-11-18T10:22:02;3.22;;;0.90;;
17253;SDS011;32542;52.832;13.816;2023-11-18T10:25:07;3.47;;;1.08;;
17253;SDS011;32542;52.832;13.816;2023-11-18T10:28:12;4.60;;;1.20;;
17253;SDS011;32542;52.832;13.816;2023-11-18T10:31:23;2.88;;;1.10;;
17253;SDS011;32542;52.832;13.816;2023-11-18T10:34:27;8.23;;;1.38;;
17253;SDS011;32542;52.832;13.816;2023-11-18T10:37:30;3.55;;;1.02;;
17253;SDS011;32542;52.832;13.816;2023-11-18T10:40:35;2.55;;;1.00;;
17253;SDS011;32542;52.832;13.816;2023-11-18T10:43:38;2.25;;;1.23;;
17253;SDS011;32542;52.832;13.816;2023-11-18T10:46:50;2.47;;;1.05;;
17253;SDS011;32542;52.832;13.816;2023-11-18T10:49:54;3.38;;;1.10;;
17253;SDS011;32542;52.832;13.816;2023-11-18T10:52:58;3.03;;;1.10;;
17253;SDS011;32542;52.832;13.816;2023-11-18T10:56:05;1.55;;;0.90;;
17253;SDS011;32542;52.832;13.816;2023-11-18T10:59:20;3.03;;;1.17;;
17253;SDS011;32542;52.832;13.816;2023-11-18T11:02:24;3.15;;;1.20;;
17253;SDS011;32542;52.832;13.816;2023-11-18T11:05:28;3.65;;;1.10;;
17253;SDS011;32542;52.832;13.816;2023-11-18T11:08:35;2.92;;;1.00;;
17253;SDS011;32542;52.832;13.816;2023-11-18T11:11:46;4.25;;;1.20;;
17253;SDS011;32542;52.832;13.816;2023-11-18T11:14:55;2.75;;;1.42;;
17253;SDS011;32542;52.832;13.816;2023-11-18T11:18:04;4.03;;;1.25;;
17253;SDS011;32542;52.832;13.816;2023-11-18T11:21:12;4.28;;;1.17;;
17253;SDS011;32542;52.832;13.816;2023-11-18T11:24:20;3.58;;;1.42;;
17253;SDS011;32542;52.832;13.816;2023-11-18T11:27:38;5.20;;;1.35;;
17253;SDS011;32542;52.832;13.816;2023-11-18T11:30:55;7.32;;;1.67;;
17253;SDS011;32542;52.832;13.816;2023-11-18T11:34:09;5.05;;;1.50;;
17253;SDS011;32542;52.832;13.816;2023-11-18T11:37:21;7.57;;;1.45;;
17253;SDS011;32542;52.832;13.816;2023-11-18T11:40:27;3.28;;;1.73;;
17253;SDS011;32542;52.832;13.816;2023-11-18T11:43:33;4.22;;;1.90;;
17253;SDS011;32542;52.832;13.816;2023-11-18T11:46:37;12.65;;;3.03;;
17253;SDS011;32542;52.832;13.816;2023-11-18T11:49:45;17.73;;;3.97;;
17253;SDS011;32542;52.832;13.816;2023-11-18T11:52:53;33.60;;;3.95;;
17253;SDS011;32542;52.832;13.816;2023-11-18T11:56:02;11.70;;;3.78;;
17253;SDS011;32542;52.832;13.816;2023-11-18T11:59:09;22.58;;;4.70;;
17253;SDS011;32542;52.832;13.816;2023-11-18T12:02:13;11.07;;;2.88;;
17253;SDS011;32542;52.832;13.816;2023-11-18T12:05:18;11.05;;;2.50;;
17253;SDS011;32542;52.832;13.816;2023-11-18T12:08:26;13.55;;;2.63;;
17253;SDS011;32542;52.832;13.816;2023-11-18T12:11:32;8.88;;;2.28;;
17253;SDS011;32542;52.832;13.816;2023-11-18T12:18:13;15.88;;;2.75;;
17253;SDS011;32542;52.832;13.816;2023-11-18T12:28:34;13.13;;;1.98;;
17253;SDS011;32542;52.832;13.816;2023-11-18T12:31:50;12.05;;;2.55;;
17253;SDS011;32542;52.832;13.816;2023-11-18T12:34:53;11.20;;;2.17;;
17253;SDS011;32542;52.832;13.816;2023-11-18T12:38:04;13.32;;;2.25;;
17253;SDS011;32542;52.832;13.816;2023-11-18T12:41:33;11.75;;;2.17;;
17253;SDS011;32542;52.832;13.816;2023-11-18T12:44:44;6.35;;;1.73;;
17253;SDS011;32542;52.832;13.816;2023-11-18T12:48:17;16.92;;;2.22;;
17253;SDS011;32542;52.832;13.816;2023-11-18T12:51:28;12.98;;;2.17;;
17253;SDS011;32542;52.832;13.816;2023-11-18T12:54:33;7.75;;;1.88;;
17253;SDS011;32542;52.832;13.816;2023-11-18T12:57:38;11.85;;;1.92;;
17253;SDS011;32542;52.832;13.816;2023-11-18T13:00:49;6.35;;;2.50;;
17253;SDS011;32542;52.832;13.816;2023-11-18T13:03:53;11.45;;;1.80;;
17253;SDS011;32542;52.832;13.816;2023-11-18T13:06:57;9.80;;;1.80;;
17253;SDS011;32542;52.832;13.816;2023-11-18T13:10:01;9.57;;;1.92;;
17253;SDS011;32542;52.832;13.816;2023-11-18T13:13:06;6.78;;;1.75;;
17253;SDS011;32542;52.832;13.816;2023-11-18T13:16:10;13.02;;;2.30;;
17253;SDS011;32542;52.832;13.816;2023-11-18T13:19:24;12.50;;;2.30;;
17253;SDS011;32542;52.832;13.816;2023-11-18T13:22:29;10.35;;;2.08;;
17253;SDS011;32542;52.832;13.816;2023-11-18T13:25:46;11.88;;;1.75;;
17253;SDS011;32542;52.832;13.816;2023-11-18T13:28:49;9.15;;;1.70;;
17253;SDS011;32542;52.832;13.816;2023-11-18T13:31:53;10.25;;;1.80;;
17253;SDS011;32542;52.832;13.816;2023-11-18T13:35:00;11.52;;;1.60;;
17253;SDS011;32542;52.832;13.816;2023-11-18T13:38:04;8.13;;;1.73;;
17253;SDS011;32542;52.832;13.816;2023-11-18T13:41:07;6.47;;;1.70;;
17253;SDS011;32542;52.832;13.816;2023-11-18T13:44:10;7.75;;;1.98;;
17253;SDS011;32542;52.832;13.816;2023-11-18T13:47:16;7.85;;;1.85;;
17253;SDS011;32542;52.832;13.816;2023-11-18T13:50:21;7.80;;;1.70;;
17253;SDS011;32542;52.832;13.816;2023-11-18T13:53:26;6.78;;;1.60;;
17253;SDS011;32542;52.832;13.816;2023-11-18T13:56:29;7.28;;;1.33;;
17253;SDS011;32542;52.832;13.816;2023-11-18T13:59:32;11.48;;;1.50;;
17253;SDS011;32542;52.832;13.816;2023-11-18T14:02:36;9.13;;;1.95;;
17253;SDS011;32542;52.832;13.816;2023-11-18T14:05:41;6.22;;;1.55;;
17253;SDS011;32542;52.832;13.816;2023-11-18T14:08:49;5.57;;;1.65;;
17253;SDS011;32542;52.832;13.816;2023-11-18T14:11:53;8.57;;;1.17;;
17253;SDS011;32542;52.832;13.816;2023-11-18T14:14:58;5.00;;;1.08;;
17253;SDS011;32542;52.832;13.816;2023-11-18T14:18:01;4.30;;;1.38;;
17253;SDS011;32542;52.832;13.816;2023-11-18T14:21:05;3.90;;;1.30;;
17253;SDS011;32542;52.832;13.816;2023-11-18T14:24:09;5.45;;;1.25;;
17253;SDS011;32542;52.832;13.816;2023-11-18T14:27:13;4.00;;;1.20;;
17253;SDS011;32542;52.832;13.816;2023-11-18T14:30:16;10.00;;;1.20;;
17253;SDS011;32542;52.832;13.816;2023-11-18T14:33:19;4.18;;;1.50;;
17253;SDS011;32542;52.832;13.816;2023-11-18T14:36:23;4.18;;;1.02;;
17253;SDS011;32542;52.832;13.816;2023-11-18T14:39:27;7.95;;;1.70;;
17253;SDS011;32542;52.832;13.816;2023-11-18T14:42:31;3.17;;;1.13;;
17253;SDS011;32542;52.832;13.816;2023-11-18T14:45:34;6.82;;;1.23;;
17253;SDS011;32542;52.832;13.816;2023-11-18T14:48:38;7.05;;;1.63;;
17253;SDS011;32542;52.832;13.816;2023-11-18T14:51:44;4.07;;;1.17;;
17253;SDS011;32542;52.832;13.816;2023-11-18T14:54:47;3.83;;;1.10;;
17253;SDS011;32542;52.832;13.816;2023-11-18T14:57:50;4.22;;;1.20;;
17253;SDS011;32542;52.832;13.816;2023-11-18T15:00:53;2.53;;;1.10;;
17253;SDS011;32542;52.832;13.816;2023-11-18T15:03:58;2.95;;;1.25;;
17253;SDS011;32542;52.832;13.816;2023-11-18T15:07:03;2.45;;;0.80;;
17253;SDS011;32542;52.832;13.816;2023-11-18T15:10:06;4.30;;;1.25;;
17253;SDS011;32542;52.832;13.816;2023-11-18T15:13:10;3.25;;;0.95;;
17253;SDS011;32542;52.832;13.816;2023-11-18T15:16:17;3.40;;;1.10;;
17253;SDS011;32542;52.832;13.816;2023-11-18T15:19:20;5.28;;;1.92;;
17253;SDS011;32542;52.832;13.816;2023-11-18T15:22:24;8.18;;;2.13;;
17253;SDS011;32542;52.832;13.816;2023-11-18T15:25:28;3.35;;;1.77;;
17253;SDS011;32542;52.832;13.816;2023-11-18T15:28:31;3.30;;;1.70;;
17253;SDS011;32542;52.832;13.816;2023-11-18T15:31:34;5.15;;;2.55;;
17253;SDS011;32542;52.832;13.816;2023-11-18T15:34:37;6.10;;;2.85;;
17253;SDS011;32542;52.832;13.816;2023-11-18T15:37:42;6.05;;;3.67;;
17253;SDS011;32542;52.832;13.816;2023-11-18T15:40:48;8.10;;;3.30;;
17253;SDS011;32542;52.832;13.816;2023-11-18T15:43:52;11.50;;;4.00;;
17253;SDS011;32542;52.832;13.816;2023-11-18T15:46:55;8.50;;;4.75;;
17253;SDS011;32542;52.832;13.816;2023-11-18T15:49:58;9.88;;;4.50;;
17253;SDS011;32542;52.832;13.816;2023-11-18T15:53:03;9.82;;;5.03;;
17253;SDS011;32542;52.832;13.816;2023-11-18T15:56:07;9.68;;;5.78;;
17253;SDS011;32542;52.832;13.816;2023-11-18T15:59:11;9.23;;;5.63;;
17253;SDS011;32542;52.832;13.816;2023-11-18T16:02:14;8.73;;;6.00;;
17253;SDS011;32542;52.832;13.816;2023-11-18T16:05:18;13.93;;;7.10;;
17253;SDS011;32542;52.832;13.816;2023-11-18T16:08:24;15.20;;;6.57;;
17253;SDS011;32542;52.832;13.816;2023-11-18T16:11:27;10.25;;;6.50;;
17253;SDS011;32542;52.832;13.816;2023-11-18T16:14:30;11.80;;;6.53;;
17253;SDS011;32542;52.832;13.816;2023-11-18T16:17:33;11.43;;;6.13;;
17253;SDS011;32542;52.832;13.816;2023-11-18T16:20:36;10.45;;;6.30;;
17253;SDS011;32542;52.832;13.816;2023-11-18T16:23:40;12.55;;;6.35;;
17253;SDS011;32542;52.832;13.816;2023-11-18T16:26:43;9.27;;;6.03;;
17253;SDS011;32542;52.832;13.816;2023-11-18T16:29:48;9.98;;;5.70;;
17253;SDS011;32542;52.832;13.816;2023-11-18T16:32:51;8.35;;;6.25;;
17253;SDS011;32542;52.832;13.816;2023-11-18T16:35:54;11.88;;;5.80;;
17253;SDS011;32542;52.832;13.816;2023-11-18T16:38:59;8.98;;;5.40;;
17253;SDS011;32542;52.832;13.816;2023-11-18T16:42:02;10.85;;;5.80;;
17253;SDS011;32542;52.832;13.816;2023-11-18T16:45:06;11.85;;;5.90;;
17253;SDS011;32542;52.832;13.816;2023-11-18T16:48:10;9.82;;;5.53;;
17253;SDS011;32542;52.832;13.816;2023-11-18T16:51:13;11.63;;;5.30;;
17253;SDS011;32542;52.832;13.816;2023-11-18T16:54:17;9.88;;;5.10;;
17253;SDS011;32542;52.832;13.816;2023-11-18T16:57:39;10.10;;;5.35;;
17253;SDS011;32542;52.832;13.816;2023-11-18T17:00:42;7.93;;;4.95;;
17253;SDS011;32542;52.832;13.816;2023-11-18T17:03:46;7.80;;;5.00;;
17253;SDS011;32542;52.832;13.816;2023-11-18T17:06:49;8.23;;;5.15;;
17253;SDS011;32542;52.832;13.816;2023-11-18T17:09:54;8.30;;;5.15;;
17253;SDS011;32542;52.832;13.816;2023-11-18T17:12:56;8.80;;;4.95;;
17253;SDS011;32542;52.832;13.816;2023-11-18T17:16:02;8.65;;;5.32;;
17253;SDS011;32542;52.832;13.816;2023-11-18T17:19:06;8.63;;;5.00;;
17253;SDS011;32542;52.832;13.816;2023-11-18T17:22:10;7.60;;;5.18;;
17253;SDS011;32542;52.832;13.816;2023-11-18T17:25:16;10.00;;;4.72;;
17253;SDS011;32542;52.832;13.816;2023-11-18T17:28:19;6.93;;;4.45;;
17253;SDS011;32542;52.832;13.816;2023-11-18T17:31:22;6.90;;;4.43;;
17253;SDS011;32542;52.832;13.816;2023-11-18T17:34:26;11.30;;;4.88;;
17253;SDS011;32542;52.832;13.816;2023-11-18T17:37:29;9.57;;;5.20;;
17253;SDS011;32542;52.832;13.816;2023-11-18T17:40:34;7.38;;;5.05;;
17253;SDS011;32542;52.832;13.816;2023-11-18T17:43:37;7.70;;;4.65;;
17253;SDS011;32542;52.832;13.816;2023-11-18T17:46:40;7.30;;;4.70;;
17253;SDS011;32542;52.832;13.816;2023-11-18T17:49:43;8.98;;;4.75;;
17253;SDS011;32542;52.832;13.816;2023-11-18T17:52:46;7.38;;;4.75;;
17253;SDS011;32542;52.832;13.816;2023-11-18T17:55:53;6.53;;;4.28;;
17253;SDS011;32542;52.832;13.816;2023-11-18T17:58:56;9.15;;;4.80;;
17253;SDS011;32542;52.832;13.816;2023-11-18T18:01:59;8.75;;;4.53;;
17253;SDS011;32542;52.832;13.816;2023-11-18T18:05:02;5.85;;;4.10;;
17253;SDS011;32542;52.832;13.816;2023-11-18T18:08:06;9.35;;;4.43;;
17253;SDS011;32542;52.832;13.816;2023-11-18T18:11:11;9.68;;;4.60;;
17253;SDS011;32542;52.832;13.816;2023-11-18T18:14:14;8.25;;;4.20;;
17253;SDS011;32542;52.832;13.816;2023-11-18T18:17:17;6.30;;;4.38;;
17253;SDS011;32542;52.832;13.816;2023-11-18T18:20:20;9.73;;;4.63;;
17253;SDS011;32542;52.832;13.816;2023-11-18T18:23:23;8.18;;;4.28;;
17253;SDS011;32542;52.832;13.816;2023-11-18T18:26:27;7.43;;;4.10;;